createdAt,value
2022-10-20T00:01:38.952Z,7.70
2022-10-20T00:04:07.644Z,7.70
2022-10-20T00:06:36.306Z,7.50
2022-10-20T00:09:06.287Z,7.50
2022-10-20T00:11:35.673Z,7.40
2022-10-20T00:14:06.144Z,7.40
2022-10-20T00:16:38.051Z,7.30
2022-10-20T00:19:06.811Z,7.20
2022-10-20T00:21:35.485Z,7.20
2022-10-20T00:24:04.564Z,7.10
2022-10-20T00:26:34.606Z,7.10
2022-10-20T00:29:04.383Z,7.10
2022-10-20T00:31:34.881Z,7.10
2022-10-20T00:34:03.515Z,7.00
2022-10-20T00:36:32.306Z,7.00
2022-10-20T00:39:02.105Z,6.90
2022-10-20T00:41:31.290Z,6.90
2022-10-20T00:44:02.440Z,6.80
2022-10-20T00:46:38.999Z,6.80
2022-10-20T00:49:14.143Z,6.70
2022-10-20T00:51:43.981Z,6.70
2022-10-20T00:54:19.564Z,6.70
2022-10-20T00:56:50.044Z,6.70
2022-10-20T00:59:22.462Z,6.70
2022-10-20T01:01:52.574Z,6.60
2022-10-20T01:04:21.851Z,6.60
2022-10-20T01:06:50.858Z,6.50
2022-10-20T01:09:19.589Z,6.40
2022-10-20T01:11:56.155Z,6.40
2022-10-20T01:14:37.046Z,6.40
2022-10-20T01:17:15.828Z,6.40
2022-10-20T01:20:09.866Z,6.30
2022-10-20T01:23:14.887Z,6.30
2022-10-20T01:26:04.530Z,6.30
2022-10-20T01:28:40.997Z,6.10
2022-10-20T01:31:18.471Z,6.10
2022-10-20T01:33:56.872Z,6.10
2022-10-20T01:36:32.476Z,6.00
2022-10-20T01:39:06.225Z,6.00
2022-10-20T01:41:39.981Z,6.00
2022-10-20T01:44:13.392Z,6.00
2022-10-20T01:46:44.497Z,6.00
2022-10-20T01:49:14.186Z,6.00
2022-10-20T01:51:42.919Z,6.00
2022-10-20T01:54:24.706Z,6.00
2022-10-20T01:57:10.125Z,5.90
2022-10-20T01:59:53.055Z,5.90
2022-10-20T02:02:44.551Z,5.90
2022-10-20T02:05:33.499Z,5.80
2022-10-20T02:08:11.339Z,5.80
2022-10-20T02:10:46.149Z,5.80
2022-10-20T02:13:16.302Z,5.70
2022-10-20T02:15:49.794Z,5.70
2022-10-20T02:18:23.402Z,5.60
2022-10-20T02:23:45.421Z,5.60
2022-10-20T02:26:17.538Z,5.60
2022-10-20T02:28:49.950Z,5.50
2022-10-20T02:31:20.788Z,5.50
2022-10-20T02:33:50.218Z,5.40
2022-10-20T02:36:21.705Z,5.40
2022-10-20T02:38:50.311Z,5.40
2022-10-20T02:41:18.916Z,5.40
2022-10-20T02:43:47.550Z,5.40
2022-10-20T02:46:17.536Z,5.30
2022-10-20T02:48:47.907Z,5.30
2022-10-20T02:51:17.622Z,5.40
2022-10-20T02:53:46.549Z,5.40
2022-10-20T02:56:15.236Z,5.40
2022-10-20T02:58:43.858Z,5.40
2022-10-20T03:01:12.752Z,5.40
2022-10-20T03:03:41.497Z,5.40
2022-10-20T03:06:13.721Z,5.30
2022-10-20T03:08:43.102Z,5.30
2022-10-20T03:11:12.200Z,5.30
2022-10-20T03:13:40.907Z,5.20
2022-10-20T03:16:09.919Z,5.10
2022-10-20T03:18:38.557Z,5.10
2022-10-20T03:21:07.302Z,5.10
2022-10-20T03:23:37.401Z,5.10
2022-10-20T03:26:07.918Z,5.10
2022-10-20T03:28:36.625Z,5.10
2022-10-20T03:31:05.400Z,5.00
2022-10-20T03:33:34.296Z,5.00
2022-10-20T03:36:03.256Z,4.90
2022-10-20T03:38:31.898Z,4.90
2022-10-20T03:43:35.526Z,4.90
2022-10-20T03:46:06.424Z,4.80
2022-10-20T03:48:35.878Z,4.80
2022-10-20T03:51:05.168Z,4.80
2022-10-20T03:53:34.356Z,4.80
2022-10-20T03:56:08.722Z,4.80
2022-10-20T03:58:37.615Z,4.70
2022-10-20T04:01:09.471Z,4.70
2022-10-20T04:03:38.064Z,4.70
2022-10-20T04:06:06.942Z,4.60
2022-10-20T04:08:35.632Z,4.60
2022-10-20T04:11:04.408Z,4.60
2022-10-20T04:13:34.638Z,4.50
2022-10-20T04:16:03.309Z,4.50
2022-10-20T04:18:32.105Z,4.50
2022-10-20T04:21:00.743Z,4.50
2022-10-20T04:23:29.380Z,4.50
2022-10-20T04:25:58.018Z,4.40
2022-10-20T04:28:26.731Z,4.40
2022-10-20T04:30:57.475Z,4.40
2022-10-20T04:33:26.159Z,4.40
2022-10-20T04:35:59.314Z,4.30
2022-10-20T04:38:28.306Z,4.30
2022-10-20T04:41:00.310Z,4.40
2022-10-20T04:43:32.313Z,4.30
2022-10-20T04:46:08.471Z,4.30
2022-10-20T04:48:37.929Z,4.30
2022-10-20T04:51:08.559Z,4.40
2022-10-20T04:53:37.918Z,4.30
2022-10-20T04:56:08.703Z,4.30
2022-10-20T04:58:37.451Z,4.20
2022-10-20T05:01:09.497Z,4.20
2022-10-20T05:03:38.544Z,4.20
2022-10-20T05:06:14.768Z,4.20
2022-10-20T05:08:46.491Z,4.20
2022-10-20T05:11:16.533Z,4.20
2022-10-20T05:13:45.511Z,4.10
2022-10-20T05:16:17.653Z,4.20
2022-10-20T05:18:46.996Z,4.20
2022-10-20T05:21:19.317Z,4.20
2022-10-20T05:23:48.110Z,4.20
2022-10-20T05:26:18.704Z,4.20
2022-10-20T05:28:49.206Z,4.20
2022-10-20T05:31:21.556Z,4.10
2022-10-20T05:33:52.282Z,4.00
2022-10-20T05:36:23.391Z,4.10
2022-10-20T05:38:53.867Z,4.10
2022-10-20T05:41:24.657Z,4.20
2022-10-20T05:43:57.352Z,4.10
2022-10-20T05:46:28.804Z,4.20
2022-10-20T05:48:59.007Z,4.10
2022-10-20T05:51:37.433Z,4.20
2022-10-20T05:54:06.281Z,4.20
2022-10-20T05:56:34.973Z,4.20
2022-10-20T05:59:03.581Z,4.20
2022-10-20T06:01:47.976Z,4.30
2022-10-20T06:04:18.443Z,4.30
2022-10-20T06:06:49.329Z,4.30
2022-10-20T06:09:18.673Z,4.30
2022-10-20T06:11:47.537Z,4.40
2022-10-20T06:14:16.219Z,4.40
2022-10-20T06:16:47.476Z,4.50
2022-10-20T06:19:16.592Z,4.50
2022-10-20T06:21:45.303Z,4.60
2022-10-20T06:24:14.419Z,4.60
2022-10-20T06:26:44.328Z,4.70
2022-10-20T06:29:14.961Z,4.80
2022-10-20T06:31:47.618Z,4.70
2022-10-20T06:34:19.240Z,4.90
2022-10-20T06:36:49.280Z,4.90
2022-10-20T06:39:19.642Z,4.90
2022-10-20T06:41:50.886Z,4.90
2022-10-20T06:44:20.017Z,4.90
2022-10-20T06:46:52.753Z,4.90
2022-10-20T06:49:22.039Z,5.00
2022-10-20T06:51:51.118Z,5.20
2022-10-20T06:54:20.361Z,5.20
2022-10-20T06:56:48.970Z,5.30
2022-10-20T06:59:17.835Z,5.50
2022-10-20T07:01:46.888Z,5.60
2022-10-20T07:04:18.324Z,5.90
2022-10-20T07:06:48.112Z,6.70
2022-10-20T07:09:19.127Z,8.10
2022-10-20T07:11:51.952Z,9.50
2022-10-20T07:14:21.327Z,10.40
2022-10-20T07:16:50.021Z,11.30
2022-10-20T07:19:20.280Z,12.30
2022-10-20T07:21:48.970Z,13.60
2022-10-20T07:24:18.796Z,14.90
2022-10-20T07:26:48.306Z,15.70
2022-10-20T07:29:19.786Z,16.10
2022-10-20T07:31:49.651Z,16.40
2022-10-20T07:34:27.653Z,17.10
2022-10-20T07:36:57.921Z,17.70
2022-10-20T07:39:26.948Z,18.40
2022-10-20T07:41:55.810Z,18.90
2022-10-20T07:44:25.197Z,19.40
2022-10-20T07:46:56.753Z,20.00
2022-10-20T07:52:16.819Z,21.10
2022-10-20T07:54:45.937Z,21.70
2022-10-20T07:57:14.580Z,22.00
2022-10-20T07:59:43.440Z,22.10
2022-10-20T08:02:13.813Z,22.30
2022-10-20T08:04:46.066Z,22.10
2022-10-20T08:07:14.776Z,22.80
2022-10-20T08:12:17.392Z,23.60
2022-10-20T08:14:48.984Z,22.50
2022-10-20T08:17:17.756Z,21.40
2022-10-20T08:19:54.916Z,21.60
2022-10-20T08:22:23.675Z,21.80
2022-10-20T08:24:52.350Z,22.30
2022-10-20T08:27:20.926Z,23.20
2022-10-20T08:29:59.902Z,23.90
2022-10-20T08:32:35.307Z,22.90
2022-10-20T08:35:07.161Z,22.30
2022-10-20T08:37:36.761Z,22.80
2022-10-20T08:40:07.160Z,23.50
2022-10-20T08:42:42.894Z,24.70
2022-10-20T08:45:18.120Z,25.60
2022-10-20T08:47:49.271Z,26.00
2022-10-20T08:50:22.813Z,25.80
2022-10-20T08:52:56.218Z,25.40
2022-10-20T08:55:31.001Z,25.80
2022-10-20T08:58:04.119Z,26.00
2022-10-20T09:00:38.063Z,26.30
2022-10-20T09:03:17.827Z,27.20
2022-10-20T09:06:00.376Z,27.10
2022-10-20T09:08:32.107Z,26.70
2022-10-20T09:11:03.297Z,26.20
2022-10-20T09:13:39.062Z,25.90
2022-10-20T09:16:19.201Z,26.10
2022-10-20T09:19:00.293Z,26.10
2022-10-20T09:21:32.052Z,27.40
2022-10-20T09:24:06.390Z,27.30
2022-10-20T09:26:57.583Z,26.40
2022-10-20T09:29:37.392Z,26.80
2022-10-20T09:35:21.343Z,25.90
2022-10-20T09:38:03.696Z,25.90
2022-10-20T09:40:32.952Z,26.20
2022-10-20T09:43:04.444Z,26.70
2022-10-20T09:45:36.139Z,26.90
2022-10-20T09:48:18.885Z,26.90
2022-10-20T09:50:52.755Z,26.30
2022-10-20T09:53:26.498Z,25.90
2022-10-20T09:55:56.132Z,25.00
2022-10-20T09:58:30.164Z,23.40
2022-10-20T10:01:03.020Z,24.00
2022-10-20T10:03:40.801Z,23.90
2022-10-20T10:06:28.386Z,23.40
2022-10-20T10:08:59.966Z,23.30
2022-10-20T10:11:34.768Z,23.00
2022-10-20T10:14:04.277Z,23.50
2022-10-20T10:16:42.924Z,22.80
2022-10-20T10:19:21.265Z,23.30
2022-10-20T10:21:56.830Z,23.20
2022-10-20T10:24:41.628Z,23.20
2022-10-20T10:27:23.844Z,23.00
2022-10-20T10:29:52.812Z,23.00
2022-10-20T10:32:26.662Z,23.90
2022-10-20T10:35:24.027Z,24.70
2022-10-20T10:37:57.538Z,25.40
2022-10-20T10:40:39.461Z,25.70
2022-10-20T10:43:31.050Z,27.10
2022-10-20T10:46:03.152Z,27.30
2022-10-20T10:49:04.973Z,28.00
2022-10-20T10:51:46.586Z,28.20
2022-10-20T10:54:30.494Z,28.40
2022-10-20T10:57:21.204Z,29.70
2022-10-20T10:59:53.393Z,30.40
2022-10-20T11:02:57.091Z,31.20
2022-10-20T11:06:19.409Z,30.80
2022-10-20T11:09:02.679Z,30.30
2022-10-20T11:11:49.733Z,28.40
2022-10-20T11:14:28.838Z,28.40
2022-10-20T11:17:09.507Z,28.40
2022-10-20T11:19:57.927Z,29.00
2022-10-20T11:22:42.205Z,29.00
2022-10-20T11:25:19.954Z,29.60
2022-10-20T11:27:48.773Z,29.50
2022-10-20T11:30:22.461Z,28.80
2022-10-20T11:32:55.148Z,29.30
2022-10-20T11:35:30.975Z,29.50
2022-10-20T11:38:13.927Z,29.70
2022-10-20T11:40:46.344Z,29.80
2022-10-20T11:43:18.821Z,30.60
2022-10-20T11:45:54.446Z,30.80
2022-10-20T11:48:29.369Z,29.80
2022-10-20T11:51:25.115Z,29.40
2022-10-20T11:54:14.646Z,29.50
2022-10-20T11:57:03.083Z,29.20
2022-10-20T11:59:55.211Z,29.50
2022-10-20T12:03:04.226Z,29.00
2022-10-20T12:05:53.346Z,27.90
2022-10-20T12:08:44.210Z,27.90
2022-10-20T12:11:19.619Z,27.50
2022-10-20T12:13:58.739Z,26.80
2022-10-20T12:17:04.563Z,26.80
2022-10-20T12:19:35.852Z,26.40
2022-10-20T12:22:07.764Z,26.50
2022-10-20T12:24:38.809Z,27.20
2022-10-20T12:27:29.192Z,27.70
2022-10-20T12:30:01.244Z,27.70
2022-10-20T12:33:01.128Z,26.80
2022-10-20T12:35:48.143Z,26.80
2022-10-20T12:38:20.203Z,27.10
2022-10-20T12:40:58.201Z,26.70
2022-10-20T12:43:39.188Z,27.50
2022-10-20T12:46:17.528Z,27.60
2022-10-20T12:48:49.216Z,28.20
2022-10-20T12:51:36.392Z,28.20
2022-10-20T12:54:24.046Z,28.60
2022-10-20T12:56:56.968Z,28.20
2022-10-20T12:59:40.521Z,28.10
2022-10-20T13:02:50.076Z,27.70
2022-10-20T13:05:43.886Z,27.30
2022-10-20T13:08:32.698Z,26.60
2022-10-20T13:11:44.769Z,26.90
2022-10-20T13:14:36.304Z,27.20
2022-10-20T13:17:19.084Z,26.00
2022-10-20T13:19:51.332Z,27.20
2022-10-20T13:22:46.939Z,27.20
2022-10-20T13:25:29.828Z,27.00
2022-10-20T13:28:18.530Z,26.50
2022-10-20T13:31:15.484Z,26.10
2022-10-20T13:34:04.391Z,25.70
2022-10-20T13:37:01.996Z,26.10
2022-10-20T13:39:40.578Z,26.10
2022-10-20T13:42:24.948Z,25.70
2022-10-20T13:45:02.364Z,26.70
2022-10-20T13:47:53.432Z,26.70
2022-10-20T13:50:25.244Z,26.60
2022-10-20T13:52:57.148Z,26.60
2022-10-20T13:55:28.874Z,26.70
2022-10-20T13:58:01.349Z,26.80
2022-10-20T14:00:32.089Z,26.50
2022-10-20T14:03:03.201Z,25.90
2022-10-20T14:05:38.123Z,25.00
2022-10-20T14:08:10.876Z,24.20
2022-10-20T14:10:45.509Z,23.50
2022-10-20T14:13:20.087Z,23.00
2022-10-20T14:15:51.689Z,22.50
2022-10-20T14:18:25.327Z,23.10
2022-10-20T14:21:03.374Z,23.20
2022-10-20T14:23:40.682Z,22.90
2022-10-20T14:26:15.970Z,21.90
2022-10-20T14:28:47.825Z,21.40
2022-10-20T14:31:17.338Z,21.10
2022-10-20T14:37:46.758Z,21.80
2022-10-20T14:40:26.746Z,22.20
2022-10-20T14:43:18.231Z,22.70
2022-10-20T14:45:59.434Z,22.90
2022-10-20T14:48:36.749Z,23.10
2022-10-20T14:51:41.237Z,23.10
2022-10-20T14:54:48.842Z,22.50
2022-10-20T14:57:57.039Z,21.90
2022-10-20T15:00:35.313Z,20.90
2022-10-20T15:03:08.345Z,19.80
2022-10-20T15:05:42.737Z,18.90
2022-10-20T15:08:18.672Z,18.20
2022-10-20T15:10:47.549Z,18.00
2022-10-20T15:13:27.687Z,17.70
2022-10-20T15:15:58.336Z,17.40
2022-10-20T15:18:29.397Z,17.10
2022-10-20T15:20:58.550Z,16.80
2022-10-20T15:23:29.662Z,16.10
2022-10-20T15:26:01.886Z,15.90
2022-10-20T15:28:38.368Z,15.90
2022-10-20T15:31:10.296Z,15.70
2022-10-20T15:33:40.832Z,15.80
2022-10-20T15:36:15.545Z,15.20
2022-10-20T15:38:44.712Z,14.90
2022-10-20T15:41:15.762Z,14.70
2022-10-20T15:43:46.115Z,14.60
2022-10-20T15:46:16.117Z,14.50
2022-10-20T15:48:47.465Z,14.30
2022-10-20T15:51:19.021Z,14.20
2022-10-20T15:53:49.698Z,14.20
2022-10-20T15:56:18.668Z,14.00
2022-10-20T15:58:47.538Z,13.90
2022-10-20T16:01:17.961Z,13.70
2022-10-20T16:03:50.071Z,13.60
2022-10-20T16:06:20.178Z,13.50
2022-10-20T16:08:51.311Z,13.50
2022-10-20T16:11:22.645Z,13.50
2022-10-20T16:13:51.399Z,13.60
2022-10-20T16:16:22.098Z,13.50
2022-10-20T16:18:52.301Z,13.40
2022-10-20T16:21:20.969Z,13.30
2022-10-20T16:23:49.775Z,13.20
2022-10-20T16:26:18.423Z,13.10
2022-10-20T16:28:47.166Z,13.10
2022-10-20T16:31:16.926Z,13.00
2022-10-20T16:33:46.382Z,12.90
2022-10-20T16:36:18.649Z,12.80
2022-10-20T16:38:47.674Z,12.80
2022-10-20T16:41:18.810Z,12.50
2022-10-20T16:43:48.832Z,12.60
2022-10-20T16:46:18.255Z,12.60
2022-10-20T16:48:48.348Z,12.50
2022-10-20T16:51:19.926Z,12.40
2022-10-20T16:53:48.719Z,12.30
2022-10-20T16:56:20.075Z,12.20
2022-10-20T16:58:51.001Z,12.20
2022-10-20T17:01:21.349Z,12.30
2022-10-20T17:03:52.190Z,12.00
2022-10-20T17:06:25.800Z,11.90
2022-10-20T17:08:55.404Z,11.90
2022-10-20T17:11:26.554Z,11.80
2022-10-20T17:13:56.321Z,11.70
2022-10-20T17:16:28.757Z,11.60
2022-10-20T17:19:00.539Z,11.60
2022-10-20T17:21:32.925Z,11.60
2022-10-20T17:24:02.858Z,11.50
2022-10-20T17:26:33.074Z,11.20
2022-10-20T17:29:03.374Z,11.10
2022-10-20T17:31:35.262Z,11.10
2022-10-20T17:34:05.573Z,11.10
2022-10-20T17:36:36.421Z,11.00
2022-10-20T17:39:09.530Z,11.00
2022-10-20T17:41:39.095Z,10.90
2022-10-20T17:44:13.287Z,10.90
2022-10-20T17:46:43.909Z,10.80
2022-10-20T17:49:13.507Z,10.80
2022-10-20T17:51:45.474Z,10.80
2022-10-20T17:54:14.695Z,10.60
2022-10-20T17:56:43.682Z,10.50
2022-10-20T17:59:13.349Z,10.40
2022-10-20T18:01:43.585Z,10.30
2022-10-20T18:04:14.685Z,10.20
2022-10-20T18:06:46.126Z,10.10
2022-10-20T18:09:16.920Z,10.10
2022-10-20T18:11:48.780Z,10.10
2022-10-20T18:14:19.685Z,10.00
2022-10-20T18:16:50.169Z,10.00
2022-10-20T18:19:23.138Z,10.00
2022-10-20T18:21:53.786Z,9.80
2022-10-20T18:24:23.086Z,9.70
2022-10-20T18:26:52.796Z,9.70
2022-10-20T18:29:22.334Z,9.60
2022-10-20T18:31:52.305Z,9.50
2022-10-20T18:34:21.982Z,9.60
2022-10-20T18:36:51.972Z,9.40
2022-10-20T18:39:24.411Z,9.50
2022-10-20T18:41:55.006Z,9.30
2022-10-20T18:44:24.140Z,9.20
2022-10-20T18:47:00.140Z,9.20
2022-10-20T18:49:29.618Z,9.20
2022-10-20T18:51:59.013Z,9.30
2022-10-20T18:54:30.280Z,9.30
2022-10-20T18:56:59.658Z,9.40
2022-10-20T18:59:28.922Z,9.30
2022-10-20T19:01:58.777Z,9.20
2022-10-20T19:04:28.322Z,9.00
2022-10-20T19:06:57.562Z,9.00
2022-10-20T19:09:27.409Z,9.00
2022-10-20T19:11:58.007Z,9.10
2022-10-20T19:14:27.725Z,8.80
2022-10-20T19:17:01.468Z,8.80
2022-10-20T19:19:31.244Z,8.70
2022-10-20T19:22:00.452Z,8.70
2022-10-20T19:24:29.818Z,8.60
2022-10-20T19:29:49.810Z,8.50
2022-10-20T19:32:19.339Z,8.40
2022-10-20T19:34:48.501Z,8.40
2022-10-20T19:37:18.344Z,8.30
2022-10-20T19:39:48.125Z,8.30
2022-10-20T19:42:18.884Z,8.20
2022-10-20T19:44:48.728Z,8.10
2022-10-20T19:47:18.134Z,8.00
2022-10-20T19:49:47.458Z,8.00
2022-10-20T19:52:16.813Z,8.10
2022-10-20T19:54:46.214Z,8.10
2022-10-20T19:57:15.581Z,8.20
2022-10-20T19:59:46.999Z,8.20
2022-10-20T20:02:16.123Z,8.10
2022-10-20T20:04:45.563Z,8.00
2022-10-20T20:07:14.835Z,8.10
2022-10-20T20:09:44.703Z,8.10
2022-10-20T20:12:15.693Z,7.80
2022-10-20T20:14:46.102Z,8.00
2022-10-20T20:17:15.573Z,7.90
2022-10-20T20:19:44.209Z,7.80
2022-10-20T20:22:20.388Z,7.80
2022-10-20T20:24:49.036Z,7.70
2022-10-20T20:27:20.143Z,7.70
2022-10-20T20:29:52.836Z,7.60
2022-10-20T20:32:28.621Z,7.60
2022-10-20T20:34:57.881Z,7.70
2022-10-20T20:37:27.798Z,7.80
2022-10-20T20:39:59.670Z,7.70
2022-10-20T20:42:30.822Z,7.80
2022-10-20T20:45:42.305Z,7.70
2022-10-20T20:48:16.418Z,7.80
2022-10-20T20:50:58.332Z,7.70
2022-10-20T20:53:28.286Z,7.70
2022-10-20T20:55:58.877Z,7.70
2022-10-20T20:58:29.434Z,7.50
2022-10-20T21:01:07.027Z,7.50
2022-10-20T21:03:38.476Z,7.50
2022-10-20T21:06:13.882Z,7.60
2022-10-20T21:08:44.917Z,7.60
2022-10-20T21:11:20.560Z,7.50
2022-10-20T21:13:51.733Z,7.40
2022-10-20T21:16:26.503Z,7.50
2022-10-20T21:18:58.169Z,7.40
2022-10-20T21:21:30.884Z,7.30
2022-10-20T21:24:09.870Z,7.30
2022-10-20T21:26:39.261Z,7.30
2022-10-20T21:29:07.942Z,7.40
2022-10-20T21:31:38.531Z,7.40
2022-10-20T21:34:07.590Z,7.40
2022-10-20T21:36:38.053Z,7.30
2022-10-20T21:39:11.678Z,7.40
2022-10-20T21:41:40.521Z,7.40
2022-10-20T21:44:10.261Z,7.50
2022-10-20T21:46:44.145Z,7.40
2022-10-20T21:49:14.469Z,7.40
2022-10-20T21:51:44.226Z,7.30
2022-10-20T21:54:17.022Z,7.40
2022-10-20T21:56:47.233Z,7.30
2022-10-20T21:59:20.687Z,7.40
2022-10-20T22:01:51.525Z,7.30
2022-10-20T22:04:22.039Z,7.40
2022-10-20T22:06:50.818Z,7.30
2022-10-20T22:09:21.227Z,7.30
2022-10-20T22:11:55.457Z,7.30
2022-10-20T22:14:26.841Z,7.30
2022-10-20T22:16:58.779Z,7.40
2022-10-20T22:19:27.502Z,7.30
2022-10-20T22:24:26.647Z,7.20
2022-10-20T22:26:55.446Z,7.30
2022-10-20T22:29:25.134Z,7.20
2022-10-20T22:31:53.844Z,7.20
2022-10-20T22:34:24.013Z,7.20
2022-10-20T22:36:52.712Z,7.10
2022-10-20T22:39:21.606Z,7.00
2022-10-20T22:41:50.198Z,7.00
2022-10-20T22:44:19.025Z,6.90
2022-10-20T22:46:47.713Z,7.00
2022-10-20T22:49:16.557Z,6.90
2022-10-20T22:51:46.627Z,6.90
2022-10-20T22:54:15.217Z,6.90
2022-10-20T22:56:43.933Z,6.80
2022-10-20T22:59:12.487Z,6.80
2022-10-20T23:01:41.088Z,6.70
2022-10-20T23:04:09.763Z,6.70
2022-10-20T23:06:38.463Z,6.60
2022-10-20T23:09:09.314Z,6.60
2022-10-20T23:11:38.042Z,6.50
2022-10-20T23:14:06.754Z,6.40
2022-10-20T23:16:35.441Z,6.50
2022-10-20T23:19:04.075Z,6.40
2022-10-20T23:21:32.751Z,6.40
2022-10-20T23:24:01.540Z,6.50
2022-10-20T23:26:31.549Z,6.40
2022-10-20T23:29:00.205Z,6.50
2022-10-20T23:31:28.830Z,6.50
2022-10-20T23:33:57.895Z,6.30
2022-10-20T23:36:26.556Z,6.20
2022-10-20T23:38:55.608Z,6.30
2022-10-20T23:41:24.508Z,6.30
2022-10-20T23:43:54.631Z,6.40
2022-10-20T23:46:23.624Z,6.30
2022-10-20T23:48:52.333Z,6.30
2022-10-20T23:51:20.940Z,6.30
2022-10-20T23:53:49.601Z,6.20
2022-10-20T23:56:18.523Z,6.10
2022-10-20T23:58:47.121Z,6.00
